CYLW

Kelowna International Airport

Kelowna, British Columbia, Canada
METAR CYLW 200000Z AUTO 15006KT 9SM SCT180 04/M01 A2983 RMK SLP120
Observed Flight Rules
Jan-20 @ 00:00 UTC (an hour ago) Visual Flight Rules
Wind Visibility Clouds
150° at 6 knots 9 miles
  • Scattered at 18,000' AGL
Temperatures Readings
Current 4°C / 39°F
Dewpoint -1°C / 30°F
Humidity 70%
Altimeter 29.83" Hg
Pressure 1012 hPa
Elevation 430
METAR CYLW 200000Z AUTO 15006KT 9SM SCT180 04/M01 A2983 RMK SLP120
Observed Flight Rules
Jan-20 @ 00:00 UTC
(an hour ago)
VFR
Wind Visibility
150° at 6 knots 9 miles
Clouds
  • Scattered at 18,000' AGL
Temperature Dewpoint
4°C / 39°F -1°C / 30°F
Humidity Altimeter Pressure
70% 29.83" Hg 1012 hPa